Time;durP1;ratioP1;P1;durP2;ratioP2;P2;SDS_P1;SDS_P2;PMS_P1;PMS_P2;Temp;Humidity;BMP_temperature;BMP_pressure;BME280_temperature;BME280_humidity;BME280_pressure;Samples;Min_cycle;Max_cycle;Signal;HPM_P1;HPM_P2
2022/09/03 09:05:10;;;;;;;6.40;4.45;;;;;;;16.95;100.00;95381.09;5065031;28;20391;-77
2022/09/03 09:07:44;;;;;;;8.40;4.30;;;;;;;17.26;100.00;95380.16;5036978;28;20033;-80
2022/09/03 09:10:18;;;;;;;6.57;4.22;;;;;;;17.30;100.00;95381.09;5046815;28;20041;-78
2022/09/03 09:13:15;;;;;;;7.28;4.00;;;;;;;17.57;100.00;95389.78;5045917;28;20044;-79
2022/09/03 09:16:20;;;;;;;5.22;3.60;;;;;;;17.57;100.00;95384.47;5038445;28;20128;-78
2022/09/03 09:19:34;;;;;;;5.47;3.58;;;;;;;17.69;100.00;95381.16;5038483;28;20041;-77
2022/09/03 09:22:08;;;;;;;7.55;4.10;;;;;;;17.91;100.00;95374.84;5037148;28;20139;-78
2022/09/03 09:24:42;;;;;;;4.88;3.70;;;;;;;18.00;100.00;95370.25;5054269;28;20041;-79
2022/09/03 09:27:07;;;;;;;6.97;3.60;;;;;;;18.12;100.00;95367.69;5045136;28;20443;-79
2022/09/03 09:29:37;;;;;;;7.65;3.78;;;;;;;18.33;100.00;95361.63;5040943;28;20132;-79
2022/09/03 09:32:06;;;;;;;5.05;3.50;;;;;;;18.48;100.00;95363.75;5039800;28;20052;-80
2022/09/03 09:34:37;;;;;;;4.75;3.10;;;;;;;18.53;100.00;95371.56;5038171;28;20122;-78
2022/09/03 09:37:25;;;;;;;5.80;3.10;;;;;;;18.31;100.00;95369.19;5044864;28;20045;-79
2022/09/03 09:39:56;;;;;;;4.65;3.30;;;;;;;18.49;100.00;95351.97;5021798;28;20057;-86
2022/09/03 09:42:22;;;;;;;4.28;3.13;;;;;;;18.84;100.00;95354.38;5048786;28;20037;-85
2022/09/03 09:44:48;;;;;;;5.30;3.40;;;;;;;18.94;100.00;95357.81;5044662;28;20065;-84
2022/09/03 09:47:25;;;;;;;4.47;3.00;;;;;;;18.94;100.00;95353.25;5040373;28;20411;-76
2022/09/03 09:49:52;;;;;;;3.97;2.80;;;;;;;18.89;100.00;95358.00;5042691;28;20438;-76
2022/09/03 09:52:20;;;;;;;4.93;3.20;;;;;;;19.18;100.00;95357.91;5044080;28;20045;-77
2022/09/03 09:54:46;;;;;;;4.40;3.30;;;;;;;19.70;100.00;95355.81;5044591;28;20045;-77
2022/09/03 09:57:20;;;;;;;4.55;3.10;;;;;;;19.68;100.00;95352.69;5045877;28;20057;-76
2022/09/03 09:59:45;;;;;;;4.15;2.90;;;;;;;19.62;100.00;95354.03;5044084;28;20044;-81
2022/09/03 10:02:27;;;;;;;4.75;3.10;;;;;;;19.94;100.00;95343.63;5044827;28;20037;-76
2022/09/03 10:05:13;;;;;;;3.95;2.70;;;;;;;19.93;100.00;95342.09;5044794;28;20490;-76
2022/09/03 10:07:39;;;;;;;4.57;2.50;;;;;;;19.99;100.00;95346.09;5036059;28;20045;-75
2022/09/03 10:10:18;;;;;;;3.45;2.65;;;;;;;19.90;100.00;95348.88;5044749;28;20045;-76
2022/09/03 10:13:11;;;;;;;6.43;2.95;;;;;;;20.44;100.00;95350.50;5032058;28;20041;-76
2022/09/03 10:15:47;;;;;;;3.13;2.40;;;;;;;20.34;93.47;95350.97;5031068;28;20049;-78
2022/09/03 10:18:38;;;;;;;3.85;2.50;;;;;;;20.00;94.17;95347.66;5031386;28;20095;-76
2022/09/03 10:21:09;;;;;;;7.07;2.60;;;;;;;20.24;93.27;95357.53;5042769;28;20038;-77
2022/09/03 10:23:58;;;;;;;4.10;2.88;;;;;;;20.36;94.49;95354.09;5032473;28;20049;-75
2022/09/03 10:26:31;;;;;;;4.65;2.53;;;;;;;20.55;94.49;95351.59;5022024;28;20377;-76
2022/09/03 10:29:01;;;;;;;3.95;2.78;;;;;;;20.73;89.92;95357.50;5031705;28;20411;-77
2022/09/03 10:31:49;;;;;;;4.35;3.10;;;;;;;20.57;100.00;95354.72;5020975;28;20042;-76
2022/09/03 10:34:40;;;;;;;3.88;2.63;;;;;;;20.43;95.99;95359.66;5027871;28;20053;-77
2022/09/03 10:37:15;;;;;;;4.40;2.80;;;;;;;20.50;100.00;95354.50;5029667;28;20053;-80
2022/09/03 10:40:08;;;;;;;4.47;2.78;;;;;;;21.91;87.25;95359.09;5030991;28;20088;-76
2022/09/03 10:42:44;;;;;;;5.55;2.80;;;;;;;22.30;83.42;95353.88;5026525;28;20487;-76
2022/09/03 10:45:27;;;;;;;5.70;3.13;;;;;;;21.70;86.98;95347.84;5029076;28;20041;-77
2022/09/03 10:48:05;;;;;;;3.33;2.70;;;;;;;21.91;86.11;95337.66;5023035;28;20096;-74
2022/09/03 10:51:02;;;;;;;5.55;3.10;;;;;;;22.89;79.37;95329.84;5022354;28;20037;-75
2022/09/03 10:53:55;;;;;;;4.10;2.60;;;;;;;23.31;76.58;95329.13;5039070;28;20106;-79
2022/09/03 10:56:30;;;;;;;4.95;2.65;;;;;;;23.74;70.53;95325.66;5025968;28;20076;-76
2022/09/03 10:59:17;;;;;;;4.05;2.60;;;;;;;24.08;69.20;95326.59;5027414;28;20056;-77
2022/09/03 11:02:05;;;;;;;4.72;2.80;;;;;;;24.43;72.58;95308.66;5030638;28;20825;-77
2022/09/03 11:04:30;;;;;;;4.35;2.80;;;;;;;24.58;69.15;95321.13;5032688;28;20041;-80
2022/09/03 11:07:07;;;;;;;3.40;2.60;;;;;;;24.75;68.24;95321.78;5030755;28;20052;-76
2022/09/03 11:09:57;;;;;;;5.25;2.58;;;;;;;24.52;67.13;95322.59;5027607;28;20523;-77
2022/09/03 11:12:30;;;;;;;3.88;2.40;;;;;;;23.83;67.63;95318.09;5025880;28;20604;-75
2022/09/03 11:15:08;;;;;;;4.13;2.40;;;;;;;23.24;67.47;95312.88;5030676;28;20049;-78
2022/09/03 11:18:00;;;;;;;4.65;2.70;;;;;;;22.57;68.35;95329.19;5016334;28;20041;-75
2022/09/03 11:20:26;;;;;;;3.58;2.78;;;;;;;23.23;69.07;95316.72;5022076;28;20053;-77
2022/09/03 11:22:56;;;;;;;4.03;2.55;;;;;;;23.98;67.49;95301.09;5027928;28;20092;-76
2022/09/03 11:25:27;;;;;;;3.95;2.83;;;;;;;25.59;64.00;95306.16;5027204;28;20731;-75
2022/09/03 11:28:27;;;;;;;4.45;2.78;;;;;;;24.54;65.06;95301.50;5027353;28;20057;-76
2022/09/03 11:31:14;;;;;;;4.95;2.80;;;;;;;24.97;63.75;95293.97;5024238;28;20120;-76
2022/09/03 11:33:45;;;;;;;4.72;2.90;;;;;;;24.46;63.79;95289.09;5022242;28;20429;-78
2022/09/03 11:36:11;;;;;;;4.78;3.20;;;;;;;23.92;66.43;95286.44;5024021;28;20045;-77
2022/09/03 11:38:38;;;;;;;4.13;2.75;;;;;;;23.50;67.12;95288.06;5023004;28;20060;-77
2022/09/03 11:41:14;;;;;;;4.35;2.85;;;;;;;23.73;66.42;95294.53;5024525;28;20061;-75
2022/09/03 11:43:41;;;;;;;4.30;3.15;;;;;;;24.78;61.71;95291.44;5024124;28;20045;-76
2022/09/03 11:46:22;;;;;;;4.68;3.00;;;;;;;24.63;61.17;95293.94;5028395;28;20470;-75
2022/09/03 11:48:49;;;;;;;4.28;3.03;;;;;;;23.57;64.40;95287.38;5021432;28;20427;-76
2022/09/03 11:51:23;;;;;;;4.57;2.92;;;;;;;23.85;65.19;95281.69;5023674;28;20041;-75
2022/09/03 11:54:06;;;;;;;5.85;3.08;;;;;;;24.34;62.96;95285.47;5025507;28;20045;-75
2022/09/03 11:56:34;;;;;;;5.80;3.08;;;;;;;25.49;62.63;95280.66;5022457;28;20041;-75
2022/09/03 11:59:15;;;;;;;5.50;3.20;;;;;;;27.08;57.65;95287.81;5030739;28;20593;-75
2022/09/03 12:01:52;;;;;;;4.28;3.17;;;;;;;25.93;57.35;95281.78;5023875;28;20054;-76
2022/09/03 12:04:30;;;;;;;4.38;3.17;;;;;;;26.77;53.71;95279.19;5016374;28;20069;-76
2022/09/03 12:07:30;;;;;;;4.65;3.28;;;;;;;27.72;51.46;95264.75;5026001;28;20079;-76
2022/09/03 12:10:09;;;;;;;5.90;3.30;;;;;;;26.39;51.75;95270.53;5025246;28;20041;-75
2022/09/03 12:13:06;;;;;;;4.57;3.03;;;;;;;26.95;49.34;95267.69;5028311;28;20044;-76
2022/09/03 12:15:49;;;;;;;4.13;3.17;;;;;;;27.86;47.26;95271.28;5026896;28;20195;-76
2022/09/03 12:18:22;;;;;;;;;;;;;;;27.85;47.21;95277.88;5032903;28;20041;-76
2022/09/03 12:20:54;;;;;;;5.70;3.50;;;;;;;27.89;46.89;95257.78;5022858;28;20299;-76
2022/09/03 12:23:32;;;;;;;5.25;3.45;;;;;;;28.86;44.55;95265.69;5028367;28;20384;-76
2022/09/03 12:26:03;;;;;;;5.15;3.10;;;;;;;28.79;44.29;95260.31;5023736;28;20045;-76
2022/09/03 12:28:34;;;;;;;4.90;3.08;;;;;;;27.79;46.23;95269.38;5027948;28;20030;-76
2022/09/03 12:31:20;;;;;;;5.65;3.72;;;;;;;27.96;46.89;95257.00;5025585;28;20072;-76
2022/09/03 12:33:52;;;;;;;3.92;3.20;;;;;;;28.07;47.53;95257.00;5026742;28;20052;-76
2022/09/03 12:36:19;;;;;;;4.43;3.28;;;;;;;28.27;44.73;95254.66;5027317;28;20048;-76
2022/09/03 12:38:46;;;;;;;4.75;3.38;;;;;;;29.12;42.80;95252.78;5016464;28;20049;-76
2022/09/03 12:41:30;;;;;;;5.68;3.58;;;;;;;28.72;44.84;95248.72;5028660;28;20079;-76
2022/09/03 12:43:58;;;;;;;4.30;3.42;;;;;;;27.78;46.63;95249.66;5025296;28;20124;-76
2022/09/03 12:46:31;;;;;;;4.80;3.50;;;;;;;28.46;49.58;95256.13;5027087;28;20037;-76
2022/09/03 12:49:06;;;;;;;4.95;3.33;;;;;;;28.65;44.48;95241.41;5019038;28;20417;-76
2022/09/03 12:51:39;;;;;;;4.72;3.58;;;;;;;28.92;43.55;95249.00;5011919;28;20040;-76
2022/09/03 12:54:14;;;;;;;5.65;3.38;;;;;;;29.15;41.74;95251.97;5027788;28;20052;-77
2022/09/03 12:56:52;;;;;;;5.28;3.20;;;;;;;30.38;40.22;95250.97;5025862;28;20112;-75
2022/09/03 12:59:20;;;;;;;5.45;3.30;;;;;;;30.01;40.70;95244.38;5024436;28;20041;-77
2022/09/03 13:01:53;;;;;;;4.57;3.15;;;;;;;28.81;41.36;95239.00;5022060;28;20041;-77
2022/09/03 13:04:25;;;;;;;4.07;3.20;;;;;;;29.04;43.85;95235.00;5041237;28;20407;-76
2022/09/03 13:07:02;;;;;;;4.40;3.25;;;;;;;29.46;39.55;95227.78;5027628;28;20060;-76
2022/09/03 13:09:29;;;;;;;4.97;3.38;;;;;;;29.47;41.77;95223.16;5019977;28;20543;-76
2022/09/03 13:11:57;;;;;;;5.55;3.30;;;;;;;29.10;42.59;95222.59;5022458;28;20049;-81
2022/09/03 13:14:25;;;;;;;7.32;3.50;;;;;;;28.85;43.72;95223.50;5028022;28;20048;-79
2022/09/03 13:16:59;;;;;;;7.13;3.47;;;;;;;28.62;43.44;95215.09;5029783;28;20044;-78
2022/09/03 13:19:47;;;;;;;5.18;3.47;;;;;;;29.87;40.51;95229.03;5024645;28;20103;-80
2022/09/03 13:22:35;;;;;;;5.60;3.60;;;;;;;28.92;42.12;95224.63;5011907;28;20121;-80
2022/09/03 13:25:22;;;;;;;4.43;3.10;;;;;;;29.17;43.66;95222.53;5028098;28;20603;-79
2022/09/03 13:28:26;;;;;;;4.82;3.10;;;;;;;28.92;44.99;95238.16;5024947;28;20064;-79
2022/09/03 13:30:51;;;;;;;;;;;;;;;27.90;42.75;95231.50;5023485;28;20037;-76
2022/09/03 13:33:36;;;;;;;4.78;3.20;;;;;;;27.67;43.16;95235.41;5027921;28;19986;-77
2022/09/03 13:36:19;;;;;;;4.95;3.20;;;;;;;28.84;40.96;95243.63;5024618;28;20172;-77
2022/09/03 13:38:57;;;;;;;4.72;3.17;;;;;;;28.60;40.31;95233.66;5022894;28;20041;-77
2022/09/03 13:41:31;;;;;;;7.07;3.83;;;;;;;27.51;43.81;95237.72;5028508;28;20172;-77
2022/09/03 13:44:04;;;;;;;5.63;3.00;;;;;;;26.88;44.98;95229.88;5025226;28;20049;-76
2022/09/03 13:47:00;;;;;;;4.25;3.00;;;;;;;25.92;48.70;95220.94;5022042;28;20140;-76
2022/09/03 13:52:24;;;;;;;5.00;3.67;;;;;;;24.68;53.90;95226.38;5031719;28;20499;-76
2022/09/03 13:54:54;;;;;;;5.40;3.60;;;;;;;24.31;56.28;95237.81;5031826;28;20052;-76
2022/09/03 13:57:38;;;;;;;5.18;3.50;;;;;;;24.09;55.93;95241.34;5030799;28;20069;-76
2022/09/03 14:00:21;;;;;;;7.55;3.70;;;;;;;23.70;57.22;95245.78;5045104;28;20045;-77
2022/09/03 14:03:05;;;;;;;4.78;3.25;;;;;;;23.79;58.39;95244.72;5027262;28;20051;-76
2022/09/03 14:05:53;;;;;;;4.88;3.28;;;;;;;23.47;58.79;95243.09;5027628;28;20041;-77
2022/09/03 14:08:18;;;;;;;5.15;3.45;;;;;;;23.47;62.25;95256.53;5023344;28;20041;-77
2022/09/03 14:10:59;;;;;;;6.70;3.30;;;;;;;23.58;62.05;95256.69;5028598;28;20440;-79
2022/09/03 14:13:45;;;;;;;4.47;3.50;;;;;;;23.16;58.90;95246.81;5027110;28;20083;-78
2022/09/03 14:16:40;;;;;;;5.22;3.58;;;;;;;23.04;60.14;95254.97;5024902;28;20101;-77
2022/09/03 14:19:11;;;;;;;7.32;3.90;;;;;;;22.69;61.69;95251.28;5029282;28;20042;-76
2022/09/03 14:21:51;;;;;;;4.75;3.13;;;;;;;22.35;64.65;95252.88;5025516;28;20103;-76
2022/09/03 14:24:25;;;;;;;4.93;3.42;;;;;;;22.27;67.81;95271.47;5032536;28;20063;-76
2022/09/03 14:26:57;;;;;;;5.70;3.33;;;;;;;22.69;67.51;95304.16;5031968;28;20076;-76
2022/09/03 14:29:28;;;;;;;4.82;2.67;;;;;;;21.69;70.68;95352.41;5026031;28;20048;-78
2022/09/03 14:32:03;;;;;;;8.10;2.72;;;;;;;19.58;100.00;95363.78;5029058;28;20163;-77
2022/09/03 14:35:06;;;;;;;24.45;4.13;;;;;;;17.18;100.00;95384.34;5028271;28;20046;-80
2022/09/03 14:37:43;;;;;;;10.85;2.65;;;;;;;14.75;100.00;95417.50;5026912;28;20403;-81
2022/09/03 14:40:29;;;;;;;11.13;2.50;;;;;;;13.64;100.00;95420.91;5030941;28;20034;-82
2022/09/03 14:42:55;;;;;;;12.60;2.80;;;;;;;13.98;100.00;95412.63;5026614;28;20049;-82
2022/09/03 14:45:33;;;;;;;12.75;3.75;;;;;;;14.23;100.00;95410.56;5026961;28;20667;-80
2022/09/03 14:48:23;;;;;;;11.38;3.08;;;;;;;14.40;100.00;95406.56;5043248;28;20416;-81
2022/09/03 14:51:12;;;;;;;9.38;3.10;;;;;;;14.45;100.00;95403.78;5022550;28;20411;-81
2022/09/03 14:53:54;;;;;;;9.43;2.90;;;;;;;14.31;100.00;95409.88;5030598;28;20845;-80
2022/09/03 14:56:39;;;;;;;6.65;2.50;;;;;;;14.46;100.00;95415.94;5024553;28;20044;-82
2022/09/03 14:59:23;;;;;;;14.82;5.88;;;;;;;14.68;100.00;95418.69;5043337;28;20041;-80
2022/09/03 15:02:13;;;;;;;12.52;4.90;;;;;;;14.77;100.00;95441.81;5026850;28;20575;-77
2022/09/03 15:04:45;;;;;;;11.07;2.85;;;;;;;14.70;100.00;95452.84;5025881;28;20033;-84
2022/09/03 15:07:33;;;;;;;7.07;2.90;;;;;;;14.78;100.00;95438.09;5026794;28;20092;-82
2022/09/03 15:10:20;;;;;;;9.55;3.25;;;;;;;14.85;100.00;95433.94;5045725;28;20045;-81
2022/09/03 15:12:52;;;;;;;8.48;3.10;;;;;;;14.82;100.00;95425.81;5026188;28;20038;-83
2022/09/03 15:15:29;;;;;;;7.25;3.00;;;;;;;14.84;100.00;95428.94;5028113;28;20045;-80
2022/09/03 15:18:26;;;;;;;6.18;2.47;;;;;;;14.73;100.00;95423.88;5019726;28;20045;-79
2022/09/03 15:21:24;;;;;;;10.30;2.80;;;;;;;14.70;100.00;95421.06;5027162;28;20547;-80
2022/09/03 15:24:06;;;;;;;9.13;2.45;;;;;;;14.58;100.00;95418.09;5020039;28;20049;-80
2022/09/03 15:26:49;;;;;;;7.70;2.70;;;;;;;14.62;100.00;95430.47;5044781;28;20045;-79
2022/09/03 15:29:47;;;;;;;7.18;2.70;;;;;;;14.49;100.00;95441.84;5020765;28;20049;-82
2022/09/03 15:32:30;;;;;;;11.27;2.85;;;;;;;14.34;100.00;95435.75;5028533;28;20474;-79
2022/09/03 15:35:34;;;;;;;7.22;2.70;;;;;;;14.22;100.00;95432.81;5029549;28;20124;-79
2022/09/03 15:38:09;;;;;;;4.82;2.30;;;;;;;14.26;100.00;95433.78;5029773;28;20108;-79
2022/09/03 15:40:44;;;;;;;7.07;2.65;;;;;;;14.25;100.00;95442.03;5023762;28;20087;-78
2022/09/03 15:43:36;;;;;;;6.57;2.53;;;;;;;14.17;100.00;95440.88;5024460;28;20423;-82
2022/09/03 15:46:12;;;;;;;6.15;2.60;;;;;;;14.17;100.00;95448.81;5027106;28;20062;-79
2022/09/03 15:48:47;;;;;;;15.07;3.00;;;;;;;14.19;100.00;95446.63;5020452;28;20052;-79
2022/09/03 15:51:27;;;;;;;7.90;3.15;;;;;;;14.27;100.00;95440.66;5024231;28;20458;-77
2022/09/03 15:54:24;;;;;;;12.18;3.63;;;;;;;14.30;100.00;95450.66;5028833;28;20057;-84
2022/09/03 15:57:12;;;;;;;8.35;3.47;;;;;;;14.32;100.00;95448.53;5024679;28;20048;-83
2022/09/03 15:59:56;;;;;;;6.85;2.83;;;;;;;14.30;100.00;95447.25;5037392;28;20045;-83
2022/09/03 16:02:38;;;;;;;10.38;3.20;;;;;;;14.33;100.00;95451.94;5036311;28;20041;-79
2022/09/03 16:05:12;;;;;;;7.60;3.03;;;;;;;14.26;100.00;95447.03;5026179;28;20033;-80
2022/09/03 16:07:54;;;;;;;7.10;2.70;;;;;;;14.36;100.00;95444.19;5026168;28;20041;-80
2022/09/03 16:10:21;;;;;;;9.00;2.83;;;;;;;14.50;100.00;95438.88;5030921;28;20041;-78
2022/09/03 16:13:28;;;;;;;8.02;3.33;;;;;;;14.64;100.00;95423.03;5023033;28;20049;-81
2022/09/03 16:15:58;;;;;;;6.80;2.80;;;;;;;14.90;100.00;95415.31;5012854;28;20053;-79
2022/09/03 16:18:35;;;;;;;8.07;2.75;;;;;;;15.13;100.00;95411.88;5027119;28;20519;-81
2022/09/03 16:21:22;;;;;;;8.88;2.90;;;;;;;15.22;100.00;95416.16;5027792;28;21459;-79
2022/09/03 16:24:20;;;;;;;6.57;2.90;;;;;;;15.30;100.00;95411.22;5030352;28;20054;-79
2022/09/03 16:26:45;;;;;;;10.82;2.90;;;;;;;15.48;100.00;95406.84;5032793;28;20041;-79
2022/09/03 16:29:16;;;;;;;5.80;2.60;;;;;;;15.57;100.00;95410.31;5028136;28;20048;-78
2022/09/03 16:32:04;;;;;;;5.90;2.60;;;;;;;15.54;100.00;95410.91;5037596;28;20557;-78
2022/09/03 16:34:39;;;;;;;5.05;2.90;;;;;;;15.48;100.00;95415.56;5017224;28;20057;-79
2022/09/03 16:37:27;;;;;;;7.22;2.53;;;;;;;15.46;100.00;95414.28;5032072;28;20037;-79
2022/09/03 16:40:02;;;;;;;4.22;2.47;;;;;;;15.42;100.00;95420.22;5030832;28;20047;-79
2022/09/03 16:42:36;;;;;;;6.70;2.80;;;;;;;15.44;100.00;95409.28;5029088;28;20590;-79
2022/09/03 16:45:40;;;;;;;6.35;2.80;;;;;;;15.48;100.00;95412.13;5030166;28;20517;-79
2022/09/03 16:48:23;;;;;;;5.28;2.60;;;;;;;15.42;100.00;95409.59;5031679;28;20522;-79
2022/09/03 16:51:17;;;;;;;10.40;4.53;;;;;;;15.40;100.00;95401.19;5026175;28;20409;-79
2022/09/03 16:54:11;;;;;;;5.80;2.70;;;;;;;15.32;100.00;95399.25;5028923;28;20048;-79
2022/09/03 16:56:57;;;;;;;6.03;2.85;;;;;;;15.26;100.00;95405.75;5030981;28;20041;-79
2022/09/03 16:59:36;;;;;;;6.45;2.70;;;;;;;15.28;100.00;95398.28;5027317;28;20045;-81
2022/09/03 17:02:10;;;;;;;6.63;2.35;;;;;;;15.28;100.00;95395.63;5028968;28;20045;-81
2022/09/03 17:04:39;;;;;;;;;;;;;;;15.21;100.00;95387.31;5031500;28;20041;-80
2022/09/03 17:07:36;;;;;;;3.60;2.28;;;;;;;15.10;100.00;95385.97;5031138;28;20279;-83
2022/09/03 17:10:16;;;;;;;8.15;4.60;;;;;;;15.04;100.00;95388.75;5028146;28;20510;-80
2022/09/03 17:12:47;;;;;;;7.35;2.88;;;;;;;15.06;100.00;95397.19;5027104;28;20053;-80
2022/09/03 17:15:25;;;;;;;4.95;2.38;;;;;;;15.03;100.00;95392.50;5032890;28;20132;-80
2022/09/03 17:18:00;;;;;;;12.13;2.53;;;;;;;15.05;100.00;95403.56;5015641;28;20046;-79
2022/09/03 17:20:28;;;;;;;6.63;2.60;;;;;;;15.02;100.00;95401.53;5044651;28;20034;-80
2022/09/03 17:23:08;;;;;;;4.63;2.60;;;;;;;14.93;100.00;95390.09;5017372;28;20044;-80
2022/09/03 17:25:55;;;;;;;3.47;2.15;;;;;;;14.86;100.00;95392.34;5049184;28;20034;-79
2022/09/03 17:28:50;;;;;;;6.15;2.33;;;;;;;14.83;100.00;95398.25;5036134;28;20431;-80
2022/09/03 17:31:51;;;;;;;3.67;2.00;;;;;;;14.69;100.00;95393.75;5020106;28;20050;-79
2022/09/03 17:34:37;;;;;;;3.53;1.85;;;;;;;14.69;100.00;95399.06;5033480;28;20535;-81
2022/09/03 17:37:30;;;;;;;3.80;2.08;;;;;;;14.58;100.00;95397.69;5036344;28;20069;-79
2022/09/03 17:40:26;;;;;;;3.90;2.28;;;;;;;14.54;100.00;95407.31;5030112;28;20051;-80
2022/09/03 17:43:21;;;;;;;3.20;1.77;;;;;;;14.42;100.00;95393.78;5026799;28;20093;-80
2022/09/03 17:46:06;;;;;;;3.90;2.10;;;;;;;14.35;100.00;95400.28;5024511;28;20057;-79
2022/09/03 17:48:51;;;;;;;;;;;;;;;14.31;100.00;95409.88;5031992;28;20063;-77
2022/09/03 17:51:34;;;;;;;2.80;1.80;;;;;;;14.27;100.00;95403.59;5015929;28;19933;-79
2022/09/03 17:54:31;;;;;;;6.18;2.33;;;;;;;14.03;100.00;95386.06;5034501;28;20053;-80
2022/09/03 17:57:03;;;;;;;4.63;1.95;;;;;;;14.14;100.00;95415.00;5033896;28;20037;-80
2022/09/03 17:59:47;;;;;;;2.55;1.67;;;;;;;14.14;100.00;95420.28;5033479;28;20042;-79
2022/09/03 18:02:13;;;;;;;3.42;1.73;;;;;;;14.08;100.00;95421.44;5021889;28;20037;-78
2022/09/03 18:04:38;;;;;;;4.20;1.88;;;;;;;14.07;100.00;95419.88;5033396;28;20048;-78
2022/09/03 18:07:28;;;;;;;3.00;1.90;;;;;;;14.01;100.00;95417.31;5030995;28;20037;-78
2022/09/03 18:10:15;;;;;;;6.30;2.00;;;;;;;13.95;100.00;95413.22;5023166;28;20380;-78
2022/09/03 18:12:49;;;;;;;3.35;1.90;;;;;;;13.88;100.00;95418.09;5020621;28;20037;-78
2022/09/03 18:15:26;;;;;;;;;;;;;;;13.85;100.00;95423.97;5025849;28;20401;-77
2022/09/03 18:17:58;;;;;;;4.10;1.90;;;;;;;13.79;100.00;95435.72;5014587;28;19971;-78
2022/09/03 20:11:29;;;;;;;5.82;2.70;;;;;;;12.55;100.00;95516.69;5031742;28;20057;-78
2022/09/03 20:14:12;;;;;;;5.68;2.83;;;;;;;12.50;100.00;95514.13;5032133;28;20072;-78
2022/09/03 20:17:17;;;;;;;4.93;2.85;;;;;;;12.49;100.00;95520.47;5031842;28;20136;-78
2022/09/03 20:19:48;;;;;;;5.00;2.90;;;;;;;12.40;100.00;95519.53;5018464;28;20485;-78
2022/09/03 20:22:44;;;;;;;6.43;3.28;;;;;;;12.47;100.00;95515.47;5032724;28;20041;-78
2022/09/03 20:25:18;;;;;;;4.90;3.10;;;;;;;12.35;100.00;95522.19;5032085;28;20045;-78
2022/09/03 20:27:57;;;;;;;5.47;3.15;;;;;;;12.30;100.00;95526.47;5030037;28;20037;-78
2022/09/03 20:30:33;;;;;;;7.22;3.40;;;;;;;12.28;100.00;95525.97;5031785;28;20041;-78
2022/09/03 20:33:17;;;;;;;8.02;3.30;;;;;;;12.30;100.00;95537.00;5032400;28;20279;-78
2022/09/03 20:35:59;;;;;;;5.53;3.28;;;;;;;12.27;100.00;95536.78;5031221;28;20033;-78
2022/09/03 20:38:32;;;;;;;9.15;3.47;;;;;;;12.21;100.00;95533.41;5030530;28;20044;-78
2022/09/03 20:41:01;;;;;;;5.20;3.05;;;;;;;12.20;100.00;95537.13;5027791;28;20445;-78
2022/09/03 20:43:41;;;;;;;5.63;3.13;;;;;;;12.14;100.00;95538.25;5029847;28;20048;-76
2022/09/03 20:46:25;;;;;;;6.13;3.00;;;;;;;12.16;100.00;95533.47;5029170;28;20043;-77
2022/09/03 20:49:23;;;;;;;7.53;3.53;;;;;;;12.15;100.00;95529.25;5029549;28;20060;-77
2022/09/03 20:52:07;;;;;;;7.45;3.17;;;;;;;12.20;100.00;95537.13;5013969;28;20125;-76
2022/09/03 20:54:35;;;;;;;5.47;2.88;;;;;;;11.98;100.00;95540.19;5022730;28;20045;-77
2022/09/03 20:57:14;;;;;;;5.32;3.13;;;;;;;11.94;100.00;95545.25;5029311;28;20065;-77
2022/09/03 20:59:47;;;;;;;7.50;3.70;;;;;;;11.95;100.00;95536.28;5026219;28;20458;-77
2022/09/03 21:02:59;;;;;;;7.85;3.58;;;;;;;11.95;100.00;95541.56;5027771;28;20734;-79
2022/09/03 21:05:31;;;;;;;5.85;3.38;;;;;;;11.99;100.00;95541.00;5026958;28;20046;-78
2022/09/03 21:08:05;;;;;;;4.97;2.97;;;;;;;11.95;100.00;95552.09;5027007;28;20060;-77
2022/09/03 21:10:41;;;;;;;9.52;3.03;;;;;;;12.01;100.00;95549.41;5028898;28;20041;-78
2022/09/03 21:13:13;;;;;;;4.30;2.60;;;;;;;12.01;100.00;95549.41;5027442;28;20096;-77
2022/09/03 21:16:03;;;;;;;5.68;3.30;;;;;;;12.07;100.00;95548.31;5030002;28;20120;-77
2022/09/03 21:18:35;;;;;;;4.78;2.85;;;;;;;11.85;100.00;95549.53;5030055;28;20099;-77
2022/09/03 21:21:03;;;;;;;6.22;2.90;;;;;;;11.77;100.00;95550.13;5021198;28;20484;-77
2022/09/03 21:23:57;;;;;;;5.10;2.95;;;;;;;11.90;100.00;95554.75;5029190;28;20103;-77
2022/09/03 21:26:27;;;;;;;5.55;2.63;;;;;;;11.87;100.00;95554.53;5023258;28;20418;-77
2022/09/03 21:29:08;;;;;;;4.45;2.63;;;;;;;11.94;100.00;95550.53;5023462;28;20162;-77
2022/09/03 21:31:46;;;;;;;4.85;2.90;;;;;;;11.95;100.00;95557.38;5024425;28;20268;-77
2022/09/03 21:34:24;;;;;;;5.28;2.33;;;;;;;11.90;100.00;95560.03;5029267;28;20053;-78
2022/09/03 21:36:50;;;;;;;4.65;2.33;;;;;;;11.94;100.00;95555.81;5026599;28;20338;-79
2022/09/03 21:39:41;;;;;;;4.95;2.53;;;;;;;11.99;100.00;95562.09;5022619;28;20508;-78
2022/09/03 21:42:23;;;;;;;4.22;2.42;;;;;;;11.93;100.00;95559.50;5029169;28;20050;-78
2022/09/03 21:45:02;;;;;;;4.47;2.40;;;;;;;11.85;100.00;95561.91;5030078;28;20128;-78
2022/09/03 21:47:34;;;;;;;8.63;3.20;;;;;;;11.78;100.00;95552.47;5027551;28;20045;-78
2022/09/03 21:50:09;;;;;;;4.07;2.30;;;;;;;11.79;100.00;95555.88;5029943;28;20101;-77
2022/09/03 21:52:41;;;;;;;;;;;;;;;11.78;100.00;95559.59;5020299;28;20060;-78
2022/09/03 21:55:45;;;;;;;3.28;2.00;;;;;;;11.67;100.00;95563.38;5034797;28;19928;-78
2022/09/03 21:58:25;;;;;;;3.70;2.53;;;;;;;11.72;100.00;95558.06;5015087;28;20046;-78
2022/09/03 22:00:56;;;;;;;3.58;2.20;;;;;;;11.66;100.00;95559.16;5027474;28;20661;-77
2022/09/03 22:03:22;;;;;;;3.88;2.40;;;;;;;11.45;100.00;95559.28;5021977;28;20033;-78
2022/09/03 22:05:55;;;;;;;4.82;2.47;;;;;;;11.49;100.00;95555.03;5028279;28;20049;-77
2022/09/03 22:08:44;;;;;;;3.88;2.47;;;;;;;11.46;100.00;95555.59;5021792;28;20786;-77
2022/09/03 22:11:20;;;;;;;3.22;2.15;;;;;;;11.51;100.00;95562.69;5027230;28;20049;-77
2022/09/03 22:13:57;;;;;;;4.85;2.00;;;;;;;11.42;100.00;95559.81;5029650;28;20495;-78
2022/09/03 22:17:04;;;;;;;4.72;2.45;;;;;;;11.40;100.00;95556.69;5025717;28;20050;-77
2022/09/03 22:19:37;;;;;;;4.30;2.33;;;;;;;11.31;100.00;95560.97;5011445;28;20049;-77
2022/09/03 22:22:46;;;;;;;4.15;2.20;;;;;;;11.29;100.00;95561.22;5030197;28;20045;-77
2022/09/03 22:25:18;;;;;;;4.93;2.55;;;;;;;11.45;100.00;95559.28;5021341;28;20077;-77
2022/09/03 22:27:52;;;;;;;5.47;2.80;;;;;;;11.42;100.00;95565.09;5031021;28;20091;-77
2022/09/03 22:30:20;;;;;;;5.15;2.40;;;;;;;11.25;100.00;95566.25;5027774;28;20052;-77
2022/09/03 22:33:15;;;;;;;4.25;2.15;;;;;;;11.34;100.00;95568.31;5025028;28;20048;-78
2022/09/03 22:35:41;;;;;;;3.80;2.22;;;;;;;11.19;100.00;95567.34;5019466;28;20037;-78
2022/09/03 22:38:22;;;;;;;3.35;2.13;;;;;;;11.21;100.00;95565.22;5027695;28;20097;-78
2022/09/03 22:40:54;;;;;;;3.40;2.22;;;;;;;11.17;100.00;95561.53;5021686;28;20054;-78
2022/09/03 22:43:41;;;;;;;2.80;1.90;;;;;;;11.15;100.00;95563.66;5023669;28;20048;-78
2022/09/03 22:46:14;;;;;;;3.70;2.13;;;;;;;11.19;100.00;95567.34;5025360;28;20089;-78
2022/09/03 22:48:56;;;;;;;4.20;2.10;;;;;;;11.11;100.00;95549.47;5032159;28;20520;-78
2022/09/03 22:51:24;;;;;;;3.10;1.98;;;;;;;11.10;100.00;95550.53;5029351;28;20041;-78
2022/09/03 22:54:05;;;;;;;4.38;2.20;;;;;;;11.17;100.00;95561.53;5026270;28;20068;-78
2022/09/03 22:56:35;;;;;;;3.42;2.10;;;;;;;11.16;100.00;95562.63;5033479;28;20168;-78
2022/09/03 22:59:18;;;;;;;9.75;2.33;;;;;;;11.15;100.00;95561.03;5030454;28;20495;-78
2022/09/03 23:02:04;;;;;;;6.25;2.30;;;;;;;11.16;100.00;95573.16;5033532;28;20041;-78
2022/09/03 23:04:37;;;;;;;4.93;2.10;;;;;;;11.12;100.00;95561.59;5032602;28;20034;-77
2022/09/03 23:07:03;;;;;;;4.75;1.92;;;;;;;11.11;100.00;95565.28;5032696;28;20042;-78
2022/09/03 23:09:35;;;;;;;3.45;2.10;;;;;;;11.06;100.00;95565.28;5032324;28;20048;-77
2022/09/03 23:12:07;;;;;;;3.15;2.00;;;;;;;10.96;100.00;95567.97;5031376;28;20041;-77
2022/09/03 23:14:47;;;;;;;3.90;2.13;;;;;;;10.95;100.00;95555.84;5033785;28;20049;-78
2022/09/03 23:17:24;;;;;;;4.68;2.20;;;;;;;10.92;100.00;95568.50;5032681;28;20045;-78
2022/09/03 23:19:57;;;;;;;4.90;2.10;;;;;;;10.99;100.00;95562.16;5030717;28;20397;-77
2022/09/03 23:22:29;;;;;;;3.30;2.00;;;;;;;11.06;100.00;95552.91;5025429;28;20121;-77
2022/09/03 23:25:19;;;;;;;4.25;2.05;;;;;;;10.94;100.00;95564.81;5021505;28;20046;-78